Time;durP1;ratioP1;P1;durP2;ratioP2;P2;SDS_P1;SDS_P2;PMS_P1;PMS_P2;Temp;Humidity;BMP_temperature;BMP_pressure;BME280_temperature;BME280_humidity;BME280_pressure;Samples;Min_cycle;Max_cycle;Signal;HPM_P1;HPM_P2
2024/03/28 00:01:52;;;;;;;3.58;1.50;;;;;;;;;;5053283;28;20025;-55
2024/03/28 00:04:18;;;;;;;2.60;1.42;;;;;;;;;;5053502;28;20028;-56
2024/03/28 00:06:44;;;;;;;2.53;1.30;;;;;;;;;;5052922;28;20079;-54
2024/03/28 00:09:10;;;;;;;2.78;1.88;;;;;;;;;;5053882;28;20436;-52
2024/03/28 00:11:36;;;;;;;2.25;1.30;;;;;;;;;;5053586;28;20028;-54
2024/03/28 00:14:02;;;;;;;3.15;1.58;;;;;;;;;;5052874;28;20031;-54
2024/03/28 00:16:28;;;;;;;2.67;1.50;;;;;;;;;;5052748;28;20033;-55
2024/03/28 00:18:54;;;;;;;2.08;1.38;;;;;;;;;;5053457;28;20033;-56
2024/03/28 00:21:20;;;;;;;5.13;1.80;;;;;;;;;;5053111;28;20091;-54
2024/03/28 00:23:46;;;;;;;3.50;1.77;;;;;;;;;;5053088;28;20029;-56
2024/03/28 00:26:11;;;;;;;2.13;1.35;;;;;;;;;;5055737;28;20344;-56
2024/03/28 00:28:37;;;;;;;2.50;1.80;;;;;;;;;;5057588;28;20039;-55
2024/03/28 00:31:07;;;;;;;2.05;1.27;;;;;;;;;;5056731;28;20175;-55
2024/03/28 00:33:33;;;;;;;3.35;1.65;;;;;;;;;;5056617;28;20078;-56
2024/03/28 00:35:59;;;;;;;3.10;1.98;;;;;;;;;;5056737;28;20114;-56
2024/03/28 00:38:25;;;;;;;3.60;1.85;;;;;;;;;;5056684;28;20418;-55
2024/03/28 00:40:55;;;;;;;3.13;1.63;;;;;;;;;;5057117;28;20029;-52
2024/03/28 00:43:21;;;;;;;2.43;1.60;;;;;;;;;;5056542;28;20459;-55
2024/03/28 00:45:47;;;;;;;1.90;1.30;;;;;;;;;;5054986;28;20463;-56
2024/03/28 00:48:19;;;;;;;1.88;1.08;;;;;;;;;;5056437;28;20029;-56
2024/03/28 00:50:54;;;;;;;2.30;1.25;;;;;;;;;;5057274;28;20067;-55
2024/03/28 00:53:20;;;;;;;3.03;1.70;;;;;;;;;;5056357;28;20493;-51
2024/03/28 00:55:46;;;;;;;3.80;1.73;;;;;;;;;;5056404;28;20450;-57
2024/03/28 00:58:13;;;;;;;2.22;1.52;;;;;;;;;;5057207;28;20111;-53
2024/03/28 01:00:40;;;;;;;2.90;1.80;;;;;;;;;;5056223;28;20040;-53
2024/03/28 01:03:06;;;;;;;5.30;1.88;;;;;;;;;;5056125;28;20051;-53
2024/03/28 01:05:32;;;;;;;2.60;1.52;;;;;;;;;;5056156;28;20068;-53
2024/03/28 01:07:58;;;;;;;4.85;1.63;;;;;;;;;;5056631;28;20478;-54
2024/03/28 01:10:24;;;;;;;1.92;1.08;;;;;;;;;;5056818;28;20076;-56
2024/03/28 01:12:50;;;;;;;4.03;1.52;;;;;;;;;;5055998;28;20028;-54
2024/03/28 01:15:17;;;;;;;2.72;1.65;;;;;;;;;;5056284;28;20029;-51
2024/03/28 01:17:43;;;;;;;1.92;1.08;;;;;;;;;;5055900;28;20040;-53
2024/03/28 01:20:09;;;;;;;2.50;1.35;;;;;;;;;;5056746;28;20029;-53
2024/03/28 01:22:35;;;;;;;1.70;0.93;;;;;;;;;;5056070;28;20064;-53
2024/03/28 01:25:01;;;;;;;2.13;1.27;;;;;;;;;;5056150;28;20025;-54
2024/03/28 01:27:27;;;;;;;1.30;0.80;;;;;;;;;;5055765;28;20025;-55
2024/03/28 01:29:53;;;;;;;3.00;1.38;;;;;;;;;;5055930;28;20033;-55
2024/03/28 01:32:19;;;;;;;2.28;1.08;;;;;;;;;;5056176;28;20352;-53
2024/03/28 01:34:45;;;;;;;1.95;1.20;;;;;;;;;;5055307;28;20470;-53
2024/03/28 01:37:11;;;;;;;1.45;0.95;;;;;;;;;;5054953;28;20021;-53
2024/03/28 01:39:37;;;;;;;2.63;1.23;;;;;;;;;;5055529;28;20029;-54
2024/03/28 01:42:03;;;;;;;1.85;0.95;;;;;;;;;;5055715;28;20367;-56
2024/03/28 01:44:29;;;;;;;2.47;1.20;;;;;;;;;;5055479;28;20021;-53
2024/03/28 01:46:55;;;;;;;2.65;1.20;;;;;;;;;;5055311;28;20028;-54
2024/03/28 01:49:22;;;;;;;2.20;1.30;;;;;;;;;;5055998;28;20032;-55
2024/03/28 01:51:48;;;;;;;2.67;1.33;;;;;;;;;;5055484;28;20025;-56
2024/03/28 01:54:14;;;;;;;2.13;1.27;;;;;;;;;;5055584;28;20040;-55
2024/03/28 01:56:41;;;;;;;1.88;0.88;;;;;;;;;;5055529;28;20106;-51
2024/03/28 01:59:07;;;;;;;2.00;1.08;;;;;;;;;;5054809;28;20025;-54
2024/03/28 02:01:33;;;;;;;2.13;1.33;;;;;;;;;;5055613;28;20036;-53
2024/03/28 02:04:00;;;;;;;2.25;1.30;;;;;;;;;;5055095;28;20031;-53
2024/03/28 02:06:26;;;;;;;1.55;0.88;;;;;;;;;;5055207;28;20029;-54
2024/03/28 02:08:52;;;;;;;2.40;1.20;;;;;;;;;;5055711;28;20140;-56
2024/03/28 02:11:18;;;;;;;2.72;1.38;;;;;;;;;;5055625;28;20047;-56
2024/03/28 02:13:44;;;;;;;2.70;1.33;;;;;;;;;;5054847;28;20068;-56
2024/03/28 02:16:10;;;;;;;2.28;1.30;;;;;;;;;;5055070;28;20050;-52
2024/03/28 02:18:36;;;;;;;2.55;1.17;;;;;;;;;;5055076;28;20033;-55
2024/03/28 02:21:02;;;;;;;2.22;1.10;;;;;;;;;;5054688;28;20051;-54
2024/03/28 02:23:28;;;;;;;2.30;1.10;;;;;;;;;;5054921;28;20120;-53
2024/03/28 02:25:54;;;;;;;3.17;1.35;;;;;;;;;;5055063;28;20064;-55
2024/03/28 02:28:20;;;;;;;2.58;1.42;;;;;;;;;;5055255;28;20032;-54
2024/03/28 02:30:46;;;;;;;2.38;1.35;;;;;;;;;;5054525;28;20037;-55
2024/03/28 02:33:12;;;;;;;2.20;1.42;;;;;;;;;;5055386;28;20410;-54
2024/03/28 02:35:38;;;;;;;3.22;1.30;;;;;;;;;;5055031;28;20037;-54
2024/03/28 02:38:04;;;;;;;3.05;1.30;;;;;;;;;;5054352;28;20070;-54
2024/03/28 02:40:30;;;;;;;2.30;1.40;;;;;;;;;;5054736;28;20033;-55
2024/03/28 02:42:55;;;;;;;1.80;1.27;;;;;;;;;;5054609;28;20031;-56
2024/03/28 02:45:21;;;;;;;2.38;1.25;;;;;;;;;;5054555;28;20029;-56
2024/03/28 02:47:47;;;;;;;2.63;1.35;;;;;;;;;;5053796;28;20021;-53
2024/03/28 02:50:13;;;;;;;4.22;2.25;;;;;;;;;;5054417;28;20037;-55
2024/03/28 02:52:40;;;;;;;2.33;1.50;;;;;;;;;;5054149;28;20581;-54
2024/03/28 02:55:06;;;;;;;4.07;2.20;;;;;;;;;;5054368;28;20096;-56
2024/03/28 02:57:32;;;;;;;2.92;2.00;;;;;;;;;;5054106;28;20052;-57
2024/03/28 02:59:58;;;;;;;2.28;1.33;;;;;;;;;;5054314;28;20036;-56
2024/03/28 03:02:24;;;;;;;4.45;1.50;;;;;;;;;;5053964;28;20098;-57
2024/03/28 03:04:50;;;;;;;2.88;1.63;;;;;;;;;;5054846;28;20027;-52
2024/03/28 03:07:16;;;;;;;4.25;2.38;;;;;;;;;;5054003;28;20383;-52
2024/03/28 03:09:45;;;;;;;3.05;1.98;;;;;;;;;;5053925;28;20086;-55
2024/03/28 03:12:11;;;;;;;1.88;1.23;;;;;;;;;;5054707;28;20108;-55
2024/03/28 03:14:37;;;;;;;2.53;1.73;;;;;;;;;;5054332;28;20031;-56
2024/03/28 03:17:03;;;;;;;3.13;1.83;;;;;;;;;;5054386;28;20367;-56
2024/03/28 03:19:29;;;;;;;3.22;1.90;;;;;;;;;;5053985;28;20120;-56
2024/03/28 03:21:56;;;;;;;2.05;1.35;;;;;;;;;;5053741;28;20025;-56
2024/03/28 03:24:23;;;;;;;2.08;1.52;;;;;;;;;;5053655;28;20074;-55
2024/03/28 03:26:49;;;;;;;3.28;2.33;;;;;;;;;;5053580;28;20147;-54
2024/03/28 03:34:49;;;;;;;3.42;2.45;;;;;;;;;;5053641;28;20031;-56
2024/03/28 03:37:22;;;;;;;2.25;1.80;;;;;;;;;;5053681;28;20029;-54
2024/03/28 03:39:55;;;;;;;5.28;2.85;;;;;;;;;;5053188;28;20040;-54
2024/03/28 03:42:21;;;;;;;5.57;3.20;;;;;;;;;;5053517;28;20021;-56
2024/03/28 03:44:47;;;;;;;5.05;3.08;;;;;;;;;;5053446;28;20379;-55
2024/03/28 03:47:13;;;;;;;3.67;2.53;;;;;;;;;;5053785;28;20033;-56
2024/03/28 03:49:44;;;;;;;3.58;2.70;;;;;;;;;;5054215;28;20029;-55
2024/03/28 03:52:16;;;;;;;3.15;2.40;;;;;;;;;;5053987;28;20029;-56
2024/03/28 03:54:44;;;;;;;5.70;3.13;;;;;;;;;;5053360;28;20025;-53
2024/03/28 03:57:10;;;;;;;3.63;2.63;;;;;;;;;;5053517;28;20187;-56
2024/03/28 03:59:37;;;;;;;4.75;3.53;;;;;;;;;;5053413;28;20478;-55
2024/03/28 04:02:03;;;;;;;5.47;3.88;;;;;;;;;;5057823;28;20116;-52
2024/03/28 04:04:29;;;;;;;4.60;4.10;;;;;;;;;;5057839;28;20032;-56
2024/03/28 04:06:55;;;;;;;4.13;3.45;;;;;;;;;;5056955;28;20387;-55
2024/03/28 04:09:22;;;;;;;4.10;3.42;;;;;;;;;;5057527;28;20366;-53
2024/03/28 04:11:48;;;;;;;5.25;3.35;;;;;;;;;;5057051;28;20029;-52
2024/03/28 04:14:15;;;;;;;4.10;3.35;;;;;;;;;;5057313;28;20033;-55
2024/03/28 04:16:41;;;;;;;4.85;3.83;;;;;;;;;;5056979;28;20119;-56
2024/03/28 04:19:07;;;;;;;5.60;3.10;;;;;;;;;;5057367;28;20058;-55
2024/03/28 04:21:36;;;;;;;5.95;3.42;;;;;;;;;;5056996;28;20028;-56
2024/03/28 04:24:05;;;;;;;5.30;4.32;;;;;;;;;;5056904;28;20025;-52
2024/03/28 04:26:32;;;;;;;3.90;2.97;;;;;;;;;;5056591;28;20025;-50
2024/03/28 04:28:58;;;;;;;4.95;2.97;;;;;;;;;;5057241;28;20033;-56
2024/03/28 04:31:24;;;;;;;4.95;3.33;;;;;;;;;;5057151;28;20136;-55
2024/03/28 04:33:50;;;;;;;5.93;3.88;;;;;;;;;;5056431;28;20482;-56
2024/03/28 04:36:17;;;;;;;5.60;3.97;;;;;;;;;;5056394;28;20383;-55
2024/03/28 04:38:43;;;;;;;4.70;3.17;;;;;;;;;;5056593;28;20028;-56
2024/03/28 04:41:10;;;;;;;4.93;3.58;;;;;;;;;;5056931;28;20096;-54
2024/03/28 04:43:36;;;;;;;4.57;3.58;;;;;;;;;;5056890;28;20040;-56
2024/03/28 04:46:02;;;;;;;5.30;3.58;;;;;;;;;;5057021;28;20036;-56
2024/03/28 04:48:28;;;;;;;5.30;3.50;;;;;;;;;;5057289;28;20367;-56
2024/03/28 04:50:54;;;;;;;5.32;3.75;;;;;;;;;;5056120;28;20044;-55
2024/03/28 04:53:20;;;;;;;5.15;3.45;;;;;;;;;;5056956;28;20104;-56
2024/03/28 04:55:46;;;;;;;5.95;4.45;;;;;;;;;;5057361;28;20354;-53
2024/03/28 04:58:12;;;;;;;4.20;3.40;;;;;;;;;;5056207;28;20132;-54
2024/03/28 05:00:38;;;;;;;6.10;4.00;;;;;;;;;;5056277;28;20455;-55
2024/03/28 05:03:05;;;;;;;6.85;3.92;;;;;;;;;;5056306;28;20025;-54
2024/03/28 05:05:31;;;;;;;6.40;3.47;;;;;;;;;;5056492;28;20035;-54
2024/03/28 05:07:57;;;;;;;4.18;3.42;;;;;;;;;;5056169;28;20052;-53
2024/03/28 05:10:23;;;;;;;7.97;4.60;;;;;;;;;;5056657;28;20040;-56
2024/03/28 05:12:49;;;;;;;5.93;3.88;;;;;;;;;;5054735;28;20029;-56
2024/03/28 05:15:15;;;;;;;5.47;4.30;;;;;;;;;;5056077;28;20118;-55
2024/03/28 05:17:42;;;;;;;6.20;4.28;;;;;;;;;;5056054;28;20474;-56
2024/03/28 05:20:08;;;;;;;5.45;3.65;;;;;;;;;;5056841;28;20355;-55
2024/03/28 05:22:34;;;;;;;4.78;3.88;;;;;;;;;;5055905;28;20029;-55
2024/03/28 05:25:00;;;;;;;7.60;4.00;;;;;;;;;;5055901;28;20029;-55
2024/03/28 05:27:26;;;;;;;4.50;3.85;;;;;;;;;;5055742;28;20025;-55
2024/03/28 05:29:52;;;;;;;5.43;4.22;;;;;;;;;;5056100;28;20033;-54
2024/03/28 05:32:18;;;;;;;5.50;3.85;;;;;;;;;;5056213;28;20025;-56
2024/03/28 05:34:44;;;;;;;5.10;3.88;;;;;;;;;;5055747;28;20025;-55
2024/03/28 05:37:10;;;;;;;4.50;3.85;;;;;;;;;;5055728;28;20489;-52
2024/03/28 05:39:36;;;;;;;4.57;3.72;;;;;;;;;;5055652;28;20029;-56
2024/03/28 05:42:02;;;;;;;5.47;4.10;;;;;;;;;;5055583;28;20060;-54
2024/03/28 05:44:28;;;;;;;6.15;3.80;;;;;;;;;;5055408;28;20112;-55
2024/03/28 05:46:54;;;;;;;5.57;3.72;;;;;;;;;;5056031;28;20075;-56
2024/03/28 05:49:20;;;;;;;4.20;3.70;;;;;;;;;;5056055;28;20025;-55
2024/03/28 05:51:46;;;;;;;5.85;4.25;;;;;;;;;;5055199;28;20033;-56
2024/03/28 05:54:12;;;;;;;4.82;3.95;;;;;;;;;;5055619;28;20143;-56
2024/03/28 05:56:38;;;;;;;4.93;3.80;;;;;;;;;;5055655;28;20371;-56
2024/03/28 05:59:05;;;;;;;11.20;4.85;;;;;;;;;;5055251;28;20021;-58
2024/03/28 06:01:31;;;;;;;4.53;3.95;;;;;;;;;;5055442;28;20074;-56
2024/03/28 06:03:58;;;;;;;4.40;3.05;;;;;;;;;;5055409;28;20021;-55
2024/03/28 06:06:24;;;;;;;5.65;3.67;;;;;;;;;;5056034;28;20108;-55
2024/03/28 06:08:50;;;;;;;4.97;2.97;;;;;;;;;;5055553;28;20033;-56
2024/03/28 06:11:16;;;;;;;5.10;3.22;;;;;;;;;;5055438;28;20041;-53
2024/03/28 06:13:42;;;;;;;4.63;3.38;;;;;;;;;;5055671;28;20033;-56
2024/03/28 06:16:08;;;;;;;2.70;2.30;;;;;;;;;;5054891;28;20048;-55
2024/03/28 06:18:34;;;;;;;3.63;2.63;;;;;;;;;;5054869;28;20025;-56
2024/03/28 06:21:01;;;;;;;3.17;2.30;;;;;;;;;;5055029;28;20519;-56
2024/03/28 06:23:27;;;;;;;3.28;2.20;;;;;;;;;;5055054;28;20029;-54
2024/03/28 06:25:53;;;;;;;4.57;2.38;;;;;;;;;;5054478;28;20021;-54
2024/03/28 06:28:19;;;;;;;3.95;2.35;;;;;;;;;;5055508;28;20107;-53
2024/03/28 06:30:48;;;;;;;3.30;2.45;;;;;;;;;;5054537;28;20073;-57
2024/03/28 06:33:15;;;;;;;3.63;2.70;;;;;;;;;;5055065;28;20456;-57
2024/03/28 06:35:41;;;;;;;4.53;2.60;;;;;;;;;;5054537;28;20032;-53
2024/03/28 06:38:07;;;;;;;3.35;2.13;;;;;;;;;;5054281;28;20044;-55
2024/03/28 06:40:33;;;;;;;3.47;2.72;;;;;;;;;;5054744;28;20115;-52
2024/03/28 06:42:59;;;;;;;3.97;2.90;;;;;;;;;;5054829;28;20116;-54
2024/03/28 06:45:25;;;;;;;3.75;2.60;;;;;;;;;;5054231;28;20040;-55
2024/03/28 06:47:51;;;;;;;5.20;3.13;;;;;;;;;;5054222;28;20366;-55
2024/03/28 06:50:17;;;;;;;4.13;2.50;;;;;;;;;;5054638;28;20037;-53
2024/03/28 06:52:43;;;;;;;3.95;2.67;;;;;;;;;;5053899;28;20025;-53
2024/03/28 06:55:09;;;;;;;3.63;2.80;;;;;;;;;;5054702;28;20025;-52
2024/03/28 06:57:35;;;;;;;4.57;3.17;;;;;;;;;;5054127;28;20047;-50
2024/03/28 07:00:01;;;;;;;4.35;1.95;;;;;;;;;;5054008;28;20157;-54
2024/03/28 07:02:28;;;;;;;4.45;2.80;;;;;;;;;;5054404;28;20140;-55
2024/03/28 07:04:54;;;;;;;3.17;1.90;;;;;;;;;;5054279;28;20082;-55
2024/03/28 07:07:20;;;;;;;2.75;2.17;;;;;;;;;;5054254;28;20025;-53
2024/03/28 07:09:46;;;;;;;3.45;1.80;;;;;;;;;;5053978;28;20379;-52
2024/03/28 07:12:12;;;;;;;3.13;1.85;;;;;;;;;;5053383;28;20025;-55
2024/03/28 07:14:38;;;;;;;2.70;1.80;;;;;;;;;;5053839;28;20035;-55
2024/03/28 07:17:04;;;;;;;3.40;2.38;;;;;;;;;;5053870;28;20017;-54
2024/03/28 07:19:30;;;;;;;3.03;1.80;;;;;;;;;;5053833;28;20415;-55
2024/03/28 07:21:56;;;;;;;2.47;1.40;;;;;;;;;;5053690;28;20055;-57
2024/03/28 07:24:22;;;;;;;3.35;1.85;;;;;;;;;;5053878;28;20025;-55
2024/03/28 07:26:48;;;;;;;2.65;1.35;;;;;;;;;;5054090;28;20025;-56
2024/03/28 07:29:14;;;;;;;3.53;2.13;;;;;;;;;;5053444;28;20025;-56
2024/03/28 07:31:40;;;;;;;2.97;1.88;;;;;;;;;;5053508;28;20078;-53
2024/03/28 07:34:06;;;;;;;4.35;2.25;;;;;;;;;;5053994;28;20033;-54
2024/03/28 07:36:32;;;;;;;3.08;2.08;;;;;;;;;;5053006;28;20021;-56
2024/03/28 07:38:58;;;;;;;3.85;2.63;;;;;;;;;;5053887;28;20167;-57
2024/03/28 07:41:24;;;;;;;3.00;2.10;;;;;;;;;;5053527;28;20025;-56
2024/03/28 07:43:50;;;;;;;3.13;2.10;;;;;;;;;;5054391;28;20035;-57
2024/03/28 07:46:16;;;;;;;4.43;2.15;;;;;;;;;;5053520;28;20025;-53
2024/03/28 07:48:42;;;;;;;3.20;1.77;;;;;;;;;;5054182;28;20462;-56
2024/03/28 07:51:11;;;;;;;3.25;2.03;;;;;;;;;;5053324;28;20040;-56
2024/03/28 07:53:37;;;;;;;3.33;2.30;;;;;;;;;;5053386;28;20127;-55
2024/03/28 07:56:04;;;;;;;3.05;2.10;;;;;;;;;;5053226;28;20045;-56
2024/03/28 07:58:31;;;;;;;3.50;2.28;;;;;;;;;;5054162;28;20124;-52
2024/03/28 08:01:03;;;;;;;3.05;2.28;;;;;;;;;;5053278;28;20021;-56
2024/03/28 08:03:33;;;;;;;2.95;2.40;;;;;;;;;;5053501;28;20108;-52
2024/03/28 08:05:59;;;;;;;3.10;2.35;;;;;;;;;;5053419;28;20021;-56
2024/03/28 08:08:25;;;;;;;4.78;2.00;;;;;;;;;;5053953;28;20032;-55
2024/03/28 08:10:51;;;;;;;5.57;2.47;;;;;;;;;;5053550;28;20367;-54
2024/03/28 08:13:18;;;;;;;3.25;1.88;;;;;;;;;;5053592;28;20033;-57
2024/03/28 08:15:44;;;;;;;2.33;1.67;;;;;;;;;;5053269;28;20025;-57
2024/03/28 08:18:10;;;;;;;2.70;1.63;;;;;;;;;;5053231;28;20115;-56
2024/03/28 08:20:37;;;;;;;2.42;1.23;;;;;;;;;;5053721;28;20040;-56
2024/03/28 08:23:02;;;;;;;4.32;1.45;;;;;;;;;;5053550;28;20044;-57
2024/03/28 08:25:29;;;;;;;2.35;1.30;;;;;;;;;;5053677;28;20025;-55
2024/03/28 08:27:56;;;;;;;2.75;1.48;;;;;;;;;;5053571;28;20063;-57
2024/03/28 08:30:22;;;;;;;2.22;1.35;;;;;;;;;;5053335;28;20036;-53
2024/03/28 08:32:48;;;;;;;1.75;1.10;;;;;;;;;;5053433;28;20044;-51
2024/03/28 08:35:14;;;;;;;3.00;1.15;;;;;;;;;;5053323;28;20025;-54
2024/03/28 08:37:41;;;;;;;2.85;1.02;;;;;;;;;;5053018;28;20033;-54
2024/03/28 08:40:09;;;;;;;2.30;0.80;;;;;;;;;;5053076;28;20031;-53
2024/03/28 08:42:35;;;;;;;1.80;0.90;;;;;;;;;;5053285;28;20025;-53
2024/03/28 08:45:02;;;;;;;1.85;0.80;;;;;;;;;;5052923;28;20056;-57
2024/03/28 08:47:28;;;;;;;3.35;1.10;;;;;;;;;;5056527;28;20025;-52
2024/03/28 08:49:54;;;;;;;1.48;0.90;;;;;;;;;;5057689;28;20028;-56
2024/03/28 08:52:20;;;;;;;1.90;0.98;;;;;;;;;;5056536;28;20490;-57
2024/03/28 08:54:46;;;;;;;1.35;0.55;;;;;;;;;;5057073;28;20024;-56
2024/03/28 08:57:12;;;;;;;1.80;0.93;;;;;;;;;;5056206;28;20048;-54
2024/03/28 08:59:39;;;;;;;1.60;0.90;;;;;;;;;;5056377;28;20025;-54
2024/03/28 09:02:07;;;;;;;1.73;0.88;;;;;;;;;;5056647;28;20094;-55
2024/03/28 09:04:33;;;;;;;1.70;0.70;;;;;;;;;;5056874;28;20410;-56
2024/03/28 09:06:59;;;;;;;2.88;0.82;;;;;;;;;;5056001;28;20040;-57
2024/03/28 09:09:25;;;;;;;1.67;0.80;;;;;;;;;;5057136;28;20029;-57
2024/03/28 09:11:51;;;;;;;2.05;0.80;;;;;;;;;;5056630;28;20056;-57
2024/03/28 09:14:17;;;;;;;1.67;0.68;;;;;;;;;;5056182;28;20040;-57
2024/03/28 09:16:43;;;;;;;0.63;0.30;;;;;;;;;;5056440;28;20052;-54
2024/03/28 09:19:09;;;;;;;1.20;0.52;;;;;;;;;;5056642;28;20025;-57
2024/03/28 09:21:35;;;;;;;0.80;0.30;;;;;;;;;;5056621;28;20402;-56
2024/03/28 09:24:01;;;;;;;2.13;0.40;;;;;;;;;;5055992;28;20025;-55
2024/03/28 09:26:28;;;;;;;0.65;0.32;;;;;;;;;;5056177;28;20098;-57
2024/03/28 09:28:58;;;;;;;1.08;0.30;;;;;;;;;;5056075;28;20032;-56
2024/03/28 09:31:24;;;;;;;1.75;0.45;;;;;;;;;;5056683;28;20115;-54
2024/03/28 09:33:50;;;;;;;0.68;0.30;;;;;;;;;;5056312;28;20044;-56
2024/03/28 09:36:17;;;;;;;0.40;0.28;;;;;;;;;;5056048;28;20028;-55
2024/03/28 09:38:50;;;;;;;1.33;0.43;;;;;;;;;;5055966;28;20107;-57
2024/03/28 09:41:29;;;;;;;0.35;0.13;;;;;;;;;;5056314;28;20064;-57
2024/03/28 09:44:00;;;;;;;1.20;0.63;;;;;;;;;;5055838;28;20102;-55
2024/03/28 09:46:26;;;;;;;;;;;;;;;;;;5056428;28;20036;-55
2024/03/28 09:48:52;;;;;;;0.88;0.40;;;;;;;;;;5055462;28;19905;-58
2024/03/28 09:51:18;;;;;;;0.68;0.30;;;;;;;;;;5055746;28;20378;-55
2024/03/28 09:53:44;;;;;;;0.70;0.20;;;;;;;;;;5056096;28;20033;-57
2024/03/28 09:56:10;;;;;;;1.10;0.50;;;;;;;;;;5055038;28;20033;-56
2024/03/28 09:58:38;;;;;;;0.38;0.20;;;;;;;;;;5055170;28;20425;-55
2024/03/28 10:01:05;;;;;;;0.60;0.30;;;;;;;;;;5055855;28;20064;-55
2024/03/28 10:03:36;;;;;;;0.75;0.30;;;;;;;;;;5055452;28;20029;-55
2024/03/28 10:06:03;;;;;;;4.10;0.47;;;;;;;;;;5055105;28;20382;-52
2024/03/28 10:08:29;;;;;;;1.13;0.40;;;;;;;;;;5055854;28;20142;-55
2024/03/28 10:10:54;;;;;;;0.40;0.20;;;;;;;;;;5054750;28;20120;-57
2024/03/28 10:13:33;;;;;;;1.10;0.40;;;;;;;;;;5055043;28;20505;-54
2024/03/28 10:16:01;;;;;;;0.77;0.25;;;;;;;;;;5055030;28;20419;-56
2024/03/28 10:18:27;;;;;;;0.50;0.28;;;;;;;;;;5055469;28;20025;-57
2024/03/28 10:20:54;;;;;;;0.40;0.10;;;;;;;;;;5055130;28;20103;-54
2024/03/28 10:23:22;;;;;;;0.40;0.20;;;;;;;;;;5054842;28;20040;-55
2024/03/28 10:25:48;;;;;;;0.50;0.20;;;;;;;;;;5055309;28;20444;-56
2024/03/28 10:28:19;;;;;;;0.50;0.20;;;;;;;;;;5055310;28;20025;-55
2024/03/28 10:30:49;;;;;;;1.77;0.25;;;;;;;;;;5055180;28;20035;-56
2024/03/28 10:33:15;;;;;;;0.38;0.20;;;;;;;;;;5055277;28;20051;-55
2024/03/28 10:35:46;;;;;;;0.40;0.20;;;;;;;;;;5054964;28;20021;-56
2024/03/28 10:38:11;;;;;;;;;;;;;;;;;;5055186;28;20474;-57
2024/03/28 10:40:38;;;;;;;1.55;0.20;;;;;;;;;;5054479;28;19909;-57
2024/03/28 10:43:06;;;;;;;0.32;0.17;;;;;;;;;;5054939;28;20370;-54
2024/03/28 10:45:33;;;;;;;0.75;0.28;;;;;;;;;;5054414;28;20115;-57
2024/03/28 10:48:00;;;;;;;3.90;0.35;;;;;;;;;;5054327;28;20104;-57
2024/03/28 10:50:32;;;;;;;0.17;0.10;;;;;;;;;;5055064;28;20029;-55
2024/03/28 10:52:59;;;;;;;0.50;0.20;;;;;;;;;;5054123;28;20037;-55
2024/03/28 10:55:36;;;;;;;0.32;0.17;;;;;;;;;;5054476;28;20025;-57
2024/03/28 10:58:03;;;;;;;0.20;0.10;;;;;;;;;;5055295;28;20048;-57
2024/03/28 11:00:29;;;;;;;3.33;3.03;;;;;;;;;;5054614;28;20087;-57
2024/03/28 11:02:56;;;;;;;0.60;0.30;;;;;;;;;;5053858;28;20032;-56
2024/03/28 11:05:24;;;;;;;0.52;0.20;;;;;;;;;;5054076;28;20025;-56
2024/03/28 11:07:51;;;;;;;0.68;0.20;;;;;;;;;;5053924;28;20055;-59
2024/03/28 11:10:18;;;;;;;0.22;0.10;;;;;;;;;;5053716;28;20124;-58
2024/03/28 11:12:44;;;;;;;0.22;0.10;;;;;;;;;;5053737;28;20047;-58
2024/03/28 11:15:18;;;;;;;1.35;0.40;;;;;;;;;;5054502;28;20025;-56
2024/03/28 11:17:45;;;;;;;0.38;0.17;;;;;;;;;;5053870;28;20467;-57
2024/03/28 11:20:16;;;;;;;0.28;0.10;;;;;;;;;;5054746;28;20091;-58
2024/03/28 11:22:42;;;;;;;0.15;0.10;;;;;;;;;;5053844;28;20074;-57
2024/03/28 11:25:26;;;;;;;0.50;0.20;;;;;;;;;;5053411;28;20029;-58
2024/03/28 11:28:02;;;;;;;1.20;0.30;;;;;;;;;;5053709;28;20048;-56
2024/03/28 11:30:28;;;;;;;0.57;0.30;;;;;;;;;;5053777;28;20025;-57
2024/03/28 11:33:06;;;;;;;0.68;0.25;;;;;;;;;;5053565;28;20043;-54
2024/03/28 11:35:32;;;;;;;0.40;0.10;;;;;;;;;;5054074;28;20032;-57
2024/03/28 11:38:02;;;;;;;0.25;0.10;;;;;;;;;;5053372;28;20104;-53
2024/03/28 11:40:28;;;;;;;0.22;0.10;;;;;;;;;;5053967;28;20091;-55
2024/03/28 11:42:54;;;;;;;0.20;0.10;;;;;;;;;;5053589;28;20029;-56
2024/03/28 11:45:20;;;;;;;1.48;0.30;;;;;;;;;;5053681;28;20414;-56
2024/03/28 11:47:46;;;;;;;3.92;0.20;;;;;;;;;;5053557;28;20075;-57
2024/03/28 11:50:13;;;;;;;0.10;0.10;;;;;;;;;;5053477;28;20407;-57
2024/03/28 11:52:39;;;;;;;0.30;0.15;;;;;;;;;;5053501;28;20116;-56
2024/03/28 11:55:05;;;;;;;0.22;0.10;;;;;;;;;;5053439;28;20060;-58
2024/03/28 11:57:31;;;;;;;0.10;0.00;;;;;;;;;;5053540;28;20045;-57
2024/03/28 12:00:04;;;;;;;0.00;0.00;;;;;;;;;;5053444;28;20029;-57
2024/03/28 12:02:30;;;;;;;0.00;0.00;;;;;;;;;;5054033;28;20025;-58
2024/03/28 12:05:06;;;;;;;0.55;0.20;;;;;;;;;;5053156;28;20028;-55
2024/03/28 12:07:32;;;;;;;0.47;0.13;;;;;;;;;;5053661;28;20021;-57
2024/03/28 12:09:58;;;;;;;0.30;0.10;;;;;;;;;;5053650;28;20036;-57
2024/03/28 12:12:24;;;;;;;0.20;0.10;;;;;;;;;;5053047;28;20029;-58
2024/03/28 12:14:52;;;;;;;0.52;0.20;;;;;;;;;;5053849;28;20135;-58
2024/03/28 12:17:20;;;;;;;0.13;0.05;;;;;;;;;;5053268;28;20056;-58
2024/03/28 12:19:46;;;;;;;0.03;0.03;;;;;;;;;;5052859;28;20040;-58
2024/03/28 12:22:12;;;;;;;0.20;0.10;;;;;;;;;;5055905;28;20025;-56
2024/03/28 12:24:42;;;;;;;0.45;0.20;;;;;;;;;;5057043;28;20473;-58
2024/03/28 12:27:14;;;;;;;0.13;0.10;;;;;;;;;;5057020;28;20021;-57
2024/03/28 12:29:40;;;;;;;0.00;0.00;;;;;;;;;;5056788;28;20490;-57
2024/03/28 12:32:09;;;;;;;0.30;0.10;;;;;;;;;;5057530;28;20029;-55
2024/03/28 12:34:35;;;;;;;0.40;0.10;;;;;;;;;;5057554;28;20029;-58
2024/03/28 12:37:01;;;;;;;0.40;0.17;;;;;;;;;;5056921;28;20095;-58
2024/03/28 12:39:27;;;;;;;1.10;0.45;;;;;;;;;;5056847;28;20099;-57
2024/03/28 12:41:54;;;;;;;0.13;0.10;;;;;;;;;;5056639;28;20029;-58
2024/03/28 12:44:19;;;;;;;0.10;0.08;;;;;;;;;;5056590;28;20028;-58
2024/03/28 12:46:45;;;;;;;0.45;0.10;;;;;;;;;;5056679;28;20025;-58
2024/03/28 12:49:12;;;;;;;0.40;0.10;;;;;;;;;;5057317;28;20029;-57
2024/03/28 12:51:38;;;;;;;0.22;0.10;;;;;;;;;;5056289;28;20037;-59
2024/03/28 12:54:03;;;;;;;0.05;0.00;;;;;;;;;;5056502;28;20032;-58
2024/03/28 12:56:30;;;;;;;0.32;0.17;;;;;;;;;;5056377;28;20045;-58
2024/03/28 12:58:55;;;;;;;0.28;0.10;;;;;;;;;;5056613;28;20029;-58
2024/03/28 13:01:21;;;;;;;0.13;0.10;;;;;;;;;;5056388;28;20035;-58
2024/03/28 13:03:51;;;;;;;0.00;0.00;;;;;;;;;;5056590;28;20443;-59
2024/03/28 13:06:17;;;;;;;3.17;0.20;;;;;;;;;;5056372;28;20478;-59
2024/03/28 13:08:43;;;;;;;0.22;0.10;;;;;;;;;;5056615;28;20064;-58
2024/03/28 13:11:09;;;;;;;2.15;0.45;;;;;;;;;;5055628;28;20489;-59
2024/03/28 13:13:35;;;;;;;0.08;0.00;;;;;;;;;;5055908;28;20025;-59
2024/03/28 13:16:01;;;;;;;0.10;0.08;;;;;;;;;;5056029;28;20099;-59
2024/03/28 13:18:27;;;;;;;2.17;0.30;;;;;;;;;;5055969;28;20108;-57
2024/03/28 13:20:53;;;;;;;0.68;0.20;;;;;;;;;;5055740;28;20025;-57
2024/03/28 13:23:19;;;;;;;0.73;0.20;;;;;;;;;;5055514;28;20025;-59
2024/03/28 13:25:45;;;;;;;1.02;0.32;;;;;;;;;;5055434;28;20383;-58
2024/03/28 13:28:11;;;;;;;0.32;0.15;;;;;;;;;;5055998;28;20503;-58
2024/03/28 13:30:37;;;;;;;0.22;0.13;;;;;;;;;;5055553;28;20448;-59
2024/03/28 13:33:03;;;;;;;0.00;0.00;;;;;;;;;;5054147;28;20124;-59
2024/03/28 13:35:29;;;;;;;0.93;0.20;;;;;;;;;;5055409;28;20033;-58
2024/03/28 13:37:55;;;;;;;0.95;0.30;;;;;;;;;;5055095;28;20029;-58
2024/03/28 13:40:21;;;;;;;0.20;0.10;;;;;;;;;;5055950;28;20028;-58
2024/03/28 13:42:47;;;;;;;2.08;0.28;;;;;;;;;;5055312;28;20109;-56
2024/03/28 13:45:13;;;;;;;0.10;0.00;;;;;;;;;;5055328;28;20371;-59
2024/03/28 13:47:39;;;;;;;1.08;0.20;;;;;;;;;;5055018;28;20430;-59
2024/03/28 13:50:05;;;;;;;0.45;0.05;;;;;;;;;;5055672;28;20422;-58
2024/03/28 13:52:31;;;;;;;0.90;0.30;;;;;;;;;;5055509;28;20033;-58
2024/03/28 13:54:57;;;;;;;0.10;0.03;;;;;;;;;;5055035;28;20159;-58
2024/03/28 13:57:23;;;;;;;0.32;0.10;;;;;;;;;;5055095;28;20055;-57
2024/03/28 13:59:49;;;;;;;1.02;0.28;;;;;;;;;;5054683;28;20025;-57
2024/03/28 14:02:15;;;;;;;0.00;0.00;;;;;;;;;;5054799;28;20075;-58
2024/03/28 14:04:41;;;;;;;0.90;0.20;;;;;;;;;;5055370;28;20029;-58
2024/03/28 14:07:07;;;;;;;0.73;0.22;;;;;;;;;;5054966;28;20482;-58
2024/03/28 14:09:32;;;;;;;0.10;0.00;;;;;;;;;;5055113;28;20047;-58
2024/03/28 14:11:58;;;;;;;0.43;0.10;;;;;;;;;;5054981;28;20374;-58
2024/03/28 14:14:25;;;;;;;0.32;0.20;;;;;;;;;;5054741;28;20033;-58
2024/03/28 14:16:51;;;;;;;0.08;0.03;;;;;;;;;;5055468;28;20036;-58
2024/03/28 14:19:17;;;;;;;2.17;0.10;;;;;;;;;;5055020;28;20029;-57
2024/03/28 14:21:43;;;;;;;0.38;0.10;;;;;;;;;;5054754;28;20077;-58
2024/03/28 14:24:08;;;;;;;0.20;0.08;;;;;;;;;;5055460;28;20048;-58
2024/03/28 14:26:34;;;;;;;0.00;0.00;;;;;;;;;;5054460;28;20025;-57
2024/03/28 14:29:00;;;;;;;0.20;0.10;;;;;;;;;;5055099;28;20060;-57
2024/03/28 14:31:27;;;;;;;0.20;0.00;;;;;;;;;;5054699;28;20056;-58
2024/03/28 14:33:53;;;;;;;0.35;0.10;;;;;;;;;;5054296;28;20467;-56
2024/03/28 14:36:19;;;;;;;0.75;0.28;;;;;;;;;;5054748;28;20017;-58
2024/03/28 14:38:45;;;;;;;1.05;0.20;;;;;;;;;;5054493;28;20033;-58
2024/03/28 14:41:11;;;;;;;0.90;0.40;;;;;;;;;;5054378;28;20429;-57
2024/03/28 14:43:40;;;;;;;0.00;0.00;;;;;;;;;;5054730;28;20086;-58
2024/03/28 14:46:07;;;;;;;0.10;0.10;;;;;;;;;;5054297;28;20029;-57